Terminal Aerodrome Forecast
Issued by NWS

Home | Current Version | Previous Version | Text Only | Print | Product List | Glossary On
Versions: 1 2 3 4 5 6 7 8 9 10 11 12 13 14 15 16
000
FTUS46 KMTR 290500
TAFSNS
TAF
KSNS 290525Z 2906/3006 13003KT P6SM SKC
     FM290900 14004KT P6SM SCT050 BKN100
     FM291500 13012KT 4SM -RA BR OVC025=

USA.gov is the U.S. government's official web portal to all federal, state and local government web resources and services.